Terminal Aerodrome Forecast
Issued by NWS

Home | Current Version | Previous Version | Text Only | Print | Product List | Glossary On
Versions: 1 2 3 4 5 6 7 8 9 10 11 12 13 14
145
FTUS43 KLSX 041139
TAFSUS
TAF
KSUS 041139Z 0412/0512 10005KT P6SM -RA OVC035
     FM041300 13006KT 4SM -RA BR OVC007
     FM042000 25004KT P6SM OVC015
     FM050200 28005KT P6SM SKC
     FM051000 VRB03KT 4SM BR SCT250=

USA.gov is the U.S. government's official web portal to all federal, state and local government web resources and services.